Lord Nelson — GHJV — position and weather

sailwx.info

Track history (hours):
 
Tides and Currents Weather Stations Pressure Air Temp Water Temp Dewpoint Dewpoint Depression Visibility Wind Speed Wind Dir Waves Ship Positions

Lord Nelson (United Kingdom)

Ship's website: http://www.jst.org.uk/

Last reported at 2019-Jun-15 15:12 UTC. Time now 2019-Jun-15 23:29 UTC.
Position N 56°25' W 005°29'.

Length 54.7 m; beam 9 m; draft 4.1 m.

Type: Sailing vessel. MMSI: 232003690.

Date/timePositionNaut miles runAvg speedWind from/ knotsBaromVisibWave heightAir tempDewpointWater temp
2019-Jun-15 15:12N 56°25' W 005°29'1 3.8
2019-Jun-15 14:57N 56°24' W 005°30'3 6.4
2019-Jun-15 14:30N 56°22' W 005°33'35 6.4
2019-Jun-15 09:00N 55°48' W 005°48'3 0.2 180 / 41007.2 2.2 11.510.510.5
2019-Jun-14 18:53N 55°49' W 005°53'2 5.5
2019-Jun-14 18:27N 55°46' W 005°53'3 6.0
2019-Jun-14 18:00N 55°44' W 005°52'2 5.0
2019-Jun-14 17:30N 55°41' W 005°52'3 5.4
2019-Jun-14 17:00N 55°39' W 005°51'3 5.8
2019-Jun-14 16:30N 55°36' W 005°51'3 5.3
2019-Jun-14 16:00N 55°33' W 005°51'3 5.4
2019-Jun-14 15:30N 55°30' W 005°51'3 5.6
2019-Jun-14 15:00N 55°28' W 005°52'3 6.8
2019-Jun-14 14:30N 55°24' W 005°53'3 6.7
2019-Jun-14 14:01N 55°21' W 005°52'4 8.5
2019-Jun-14 13:31N 55°17' W 005°50'4 8.9
2019-Jun-14 13:01N 55°13' W 005°47'2110.5
2019-Jun-14 11:00N 54°54' W 005°30'4 2.3 150 / 161004.610.8 12.0 7.9
2019-Jun-14 09:11N 54°51' W 005°25'1 7.2
2019-Jun-14 09:00N 54°50' W 005°24'4 6.9
2019-Jun-14 08:30N 54°47' W 005°21'3 6.5
2019-Jun-14 08:00N 54°44' W 005°18'3 6.1
2019-Jun-14 07:30N 54°41' W 005°16'3 5.7
2019-Jun-14 07:00N 54°39' W 005°14'3 6.2
2019-Jun-14 06:30N 54°35' W 005°14'3 6.2
2019-Jun-14 06:00N 54°32' W 005°13'3 6.1
2019-Jun-14 05:30N 54°29' W 005°14'3 6.0
2019-Jun-14 05:00N 54°26' W 005°14'3 5.9
2019-Jun-14 04:30N 54°23' W 005°14'3 6.1
2019-Jun-14 04:00N 54°20' W 005°14'3 6.3
2019-Jun-14 03:30N 54°17' W 005°15'3 6.7
2019-Jun-14 03:00N 54°14' W 005°15'1413.9
2019-Jun-14 02:00N 54°00' W 005°12'30 6.0 230 / 121004.110.8 10.0 5.411.4
2019-Jun-13 21:00N 53°30' W 005°18'28 7.2 270 / 161005.910.8 11.0 5.610.9
2019-Jun-13 17:05N 53°03' W 005°30'2 8.8
2019-Jun-13 16:51N 53°01' W 005°30'7 8.3
2019-Jun-13 15:59N 52°54' W 005°35'4 7.4
2019-Jun-13 15:28N 52°51' W 005°38'4 7.3
2019-Jun-13 14:56N 52°48' W 005°41'3 5.5
2019-Jun-13 14:20N 52°44' W 005°42'5 6.4
2019-Jun-13 13:29N 52°41' W 005°35'15 6.0
2019-Jun-13 11:00N 52°36' W 005°12'35 3.9 360 / 211005.810.8 11.0 9.011.2
2019-Jun-13 02:00N 52°06' W 005°42'13 3.1 350 / 241006.0 5.4 11.510.511.1
2019-Jun-12 22:00N 52°00' W 006°00'34 0.9 340 / 51010.110.8 11.910.211.3
2019-Jun-11 08:00N 52°06' W 006°54'21 3.5 350 / 221021.010.8 12.5 8.512.5
2019-Jun-11 02:00N 51°48' W 006°36'5513.8 340 / 221019.9 5.4 12.111.213.3
2019-Jun-10 22:00N 51°30' W 005°12'3538.4 360 / 241019.527.0 12.5 9.612.7
2019-Jun-10 21:05N 51°29' W 006°08'1 6.1
2019-Jun-10 20:59N 51°29' W 006°07'3 5.5
2019-Jun-10 20:30N 51°27' W 006°04'3 5.6
2019-Jun-10 20:00N 51°25' W 006°01'3 5.7
2019-Jun-10 19:30N 51°23' W 005°58'3 5.4
2019-Jun-10 19:00N 51°21' W 005°55'2 4.7
2019-Jun-10 18:28N 51°18' W 005°54'37 6.7
2019-Jun-10 13:00N 50°42' W 005°48'18 9.0 180 / 71017.710.8 16.611.714.2
2019-Jun-10 11:00N 50°24' W 005°48'49 5.4 020 / 51017.410.8 15.0 9.213.7
2019-Jun-10 02:00N 49°54' W 004°48'8 7.4 330 / 41019.010.8 13.0 9.713.4
2019-Jun-10 00:52N 49°59' W 004°38'4 6.9
2019-Jun-10 00:14N 50°00' W 004°31'2 6.8
2019-Jun-10 00:01N 50°01' W 004°29'3 6.7
2019-Jun-09 23:30N 50°01' W 004°24'3 6.7
2019-Jun-09 23:00N 50°02' W 004°19'3 6.6
2019-Jun-09 22:30N 50°04' W 004°14'3 6.3
2019-Jun-09 22:00N 50°04' W 004°09'3 6.5
2019-Jun-09 21:30N 50°05' W 004°04'3 6.6
2019-Jun-09 21:00N 50°06' W 003°59'4 7.1
2019-Jun-09 20:30N 50°07' W 003°54'4 7.4
2019-Jun-09 20:00N 50°08' W 003°49'4 8.0
2019-Jun-09 19:30N 50°09' W 003°43'4 8.2
2019-Jun-09 19:00N 50°10' W 003°36'4 8.1
2019-Jun-09 18:30N 50°11' W 003°30'4 8.1
2019-Jun-09 18:00N 50°12' W 003°24'4 8.0
2019-Jun-09 17:30N 50°14' W 003°19'4 7.9
2019-Jun-09 17:00N 50°16' W 003°13'4 7.7
2019-Jun-09 16:30N 50°17' W 003°08'4 7.4
2019-Jun-09 16:00N 50°19' W 003°02'4 7.2
2019-Jun-09 15:30N 50°20' W 002°57'3 7.0
2019-Jun-09 15:00N 50°21' W 002°52'3 6.4
2019-Jun-09 14:30N 50°22' W 002°47'3 6.0
2019-Jun-09 14:01N 50°23' W 002°42'5272.2
2019-Jun-09 14:00N 50°18' W 002°42'612.0 200 / 61020.810.8 16.7 9.913.8
2019-Jun-09 13:30N 50°23' W 002°38'3 5.6
2019-Jun-09 13:00N 50°24' W 002°34'3 5.1
2019-Jun-09 12:30N 50°24' W 002°30'2 4.9
2019-Jun-09 12:00N 50°25' W 002°26'5 5.3
2019-Jun-09 11:00N 50°24' W 002°18'12 6.2 230 / 51021.5 5.4 18.511.213.9
2019-Jun-09 08:59N 50°31' W 002°02'3 6.9
2019-Jun-09 08:31N 50°33' W 001°58'4 7.6
2019-Jun-09 08:00N 50°37' W 001°56'0 0.7
2019-Jun-09 07:29N 50°37' W 001°56'0 0.0
2019-Jun-09 06:59N 50°37' W 001°56'0 0.0
2019-Jun-09 06:29N 50°37' W 001°56'0 0.0
2019-Jun-09 05:59N 50°37' W 001°56'0 0.0
2019-Jun-09 05:29N 50°37' W 001°56'0 0.0
2019-Jun-09 04:59N 50°37' W 001°56'0 0.0
2019-Jun-09 03:59N 50°37' W 001°56'0 0.0
2019-Jun-09 03:29N 50°37' W 001°56'0 0.0
2019-Jun-09 02:59N 50°37' W 001°56'0 0.0
2019-Jun-09 02:29N 50°37' W 001°56'0 0.0
2019-Jun-09 01:59N 50°37' W 001°56'0 0.0
2019-Jun-09 01:29N 50°37' W 001°56'0 0.0
2019-Jun-09 00:59N 50°37' W 001°56'0 0.0
2019-Jun-09 00:26N 50°37' W 001°56'0 0.0
2019-Jun-08 23:59N 50°37' W 001°56'0 0.0
2019-Jun-08 23:29N 50°37' W 001°56'0 0.0
2019-Jun-08 22:59N 50°37' W 001°56'0 0.0
2019-Jun-08 22:29N 50°37' W 001°56'0 0.0
2019-Jun-08 21:59N 50°37' W 001°56'0 0.0
2019-Jun-08 21:29N 50°37' W 001°56'0 0.0
2019-Jun-08 20:59N 50°37' W 001°56'0 0.0
2019-Jun-08 20:29N 50°37' W 001°56'0 0.0
2019-Jun-08 19:59N 50°37' W 001°56'0 0.0
2019-Jun-08 19:29N 50°37' W 001°56'0 0.0
2019-Jun-08 18:59N 50°37' W 001°56'0 0.0
2019-Jun-08 18:31N 50°37' W 001°56'2 3.4
2019-Jun-08 18:00N 50°39' W 001°55'4 7.2
2019-Jun-08 17:31N 50°42' W 001°57'2 2.9
2019-Jun-08 16:59N 50°43' W 001°59'0 0.0
2019-Jun-08 16:29N 50°43' W 001°59'0 0.0
2019-Jun-08 15:56N 50°43' W 001°59'0 0.0
2019-Jun-08 15:17N 50°43' W 001°59'0 0.0
2019-Jun-08 14:56N 50°43' W 001°59'0 0.0
2019-Jun-08 14:20N 50°43' W 001°59'0 0.0
2019-Jun-08 13:59N 50°43' W 001°59'0 0.0
2019-Jun-08 13:26N 50°43' W 001°59'0 0.0
2019-Jun-08 12:56N 50°43' W 001°59'0 0.0
2019-Jun-08 12:26N 50°43' W 001°59'0 0.0
2019-Jun-08 11:56N 50°43' W 001°59'0 0.0
2019-Jun-08 11:17N 50°43' W 001°59'0 0.0
2019-Jun-08 10:59N 50°43' W 001°59'0 0.0
2019-Jun-08 10:29N 50°43' W 001°59'0 0.0
2019-Jun-08 09:59N 50°43' W 001°59'0 0.0
2019-Jun-08 09:29N 50°43' W 001°59'0 0.0
2019-Jun-08 08:59N 50°43' W 001°59'0 0.0
2019-Jun-08 08:11N 50°43' W 001°59'0 0.0
2019-Jun-08 07:59N 50°43' W 001°59'0 0.0
2019-Jun-08 07:26N 50°43' W 001°59'0 0.0
2019-Jun-08 06:56N 50°43' W 001°59'0 0.0
2019-Jun-08 06:29N 50°43' W 001°59'0 0.0
2019-Jun-08 05:59N 50°43' W 001°59'0 0.0
2019-Jun-08 05:29N 50°43' W 001°59'0 0.0
2019-Jun-08 04:59N 50°43' W 001°59'0 0.0
2019-Jun-08 04:29N 50°43' W 001°59'0 0.0
2019-Jun-08 03:56N 50°43' W 001°59'0 0.0
2019-Jun-08 03:26N 50°43' W 001°59'0 0.0
2019-Jun-08 02:59N 50°43' W 001°59'0 0.0
2019-Jun-08 02:29N 50°43' W 001°59'0 0.0
2019-Jun-08 01:55N 50°43' W 001°59'0 0.0
2019-Jun-08 01:25N 50°43' W 001°59'0 0.0
2019-Jun-08 00:58N 50°43' W 001°59'0 0.0
2019-Jun-08 00:28N 50°43' W 001°59'0 0.0
2019-Jun-07 23:55N 50°43' W 001°59'0 0.0
2019-Jun-07 23:28N 50°43' W 001°59'0 0.0
2019-Jun-07 22:58N 50°43' W 001°59'0 0.0
2019-Jun-07 22:25N 50°43' W 001°59'0 0.0
2019-Jun-07 21:58N 50°43' W 001°59'0 0.0
2019-Jun-07 21:28N 50°43' W 001°59'0 0.0
2019-Jun-07 20:52N 50°43' W 001°59'0 0.0
2019-Jun-07 20:28N 50°43' W 001°59'0 0.0
2019-Jun-07 19:55N 50°43' W 001°59'0 0.0
2019-Jun-07 19:25N 50°43' W 001°59'0 0.0
2019-Jun-07 18:58N 50°43' W 001°59'0 0.0
2019-Jun-07 18:25N 50°43' W 001°59'0 0.0
2019-Jun-07 17:52N 50°43' W 001°59'0 0.0
2019-Jun-07 17:25N 50°43' W 001°59'0 0.0
2019-Jun-07 16:58N 50°43' W 001°59'0 0.0
2019-Jun-07 16:25N 50°43' W 001°59'0 0.0
2019-Jun-07 15:55N 50°43' W 001°59'0 0.0
2019-Jun-07 15:19N 50°43' W 001°59'0 0.0
2019-Jun-07 14:58N 50°43' W 001°59'0 0.0
2019-Jun-07 14:25N 50°43' W 001°59'0 0.0
2019-Jun-07 13:55N 50°43' W 001°59'0 0.0
2019-Jun-07 13:25N 50°43' W 001°59'0 0.0
2019-Jun-07 12:55N 50°43' W 001°59'0 0.0
2019-Jun-07 12:19N 50°43' W 001°59'0 0.0
2019-Jun-07 11:49N 50°43' W 001°59'0 0.0
2019-Jun-07 11:19N 50°43' W 001°59'0 0.0
2019-Jun-07 10:58N 50°43' W 001°59'0 0.0
2019-Jun-07 10:25N 50°43' W 001°59'0 0.0
2019-Jun-07 09:55N 50°43' W 001°59'0 0.0
2019-Jun-07 09:25N 50°43' W 001°59'0 0.0
2019-Jun-07 08:55N 50°43' W 001°59'0 0.0
2019-Jun-07 08:19N 50°43' W 001°59'0 0.0
2019-Jun-07 07:55N 50°43' W 001°59'0 0.0
2019-Jun-07 07:25N 50°43' W 001°59'0 0.0
2019-Jun-07 06:49N 50°43' W 001°59'0 0.0
2019-Jun-07 06:22N 50°43' W 001°59'0 0.0
2019-Jun-07 05:55N 50°43' W 001°59'0 0.0
2019-Jun-07 05:22N 50°43' W 001°59'0 0.0
2019-Jun-07 04:49N 50°43' W 001°59'0 0.0
2019-Jun-07 04:25N 50°43' W 001°59'0 0.0
2019-Jun-07 03:55N 50°43' W 001°59'0 0.0
2019-Jun-07 03:25N 50°43' W 001°59'0 0.0
2019-Jun-07 02:58N 50°43' W 001°59'0 0.0
2019-Jun-07 02:25N 50°43' W 001°59'0 0.0
2019-Jun-07 01:49N 50°43' W 001°59'0 0.0
2019-Jun-07 01:28N 50°43' W 001°59'0 0.0
2019-Jun-07 00:49N 50°43' W 001°59'0 0.0
2019-Jun-07 00:16N 50°43' W 001°59'0 0.0
2019-Jun-06 23:55N 50°43' W 001°59'0 0.0
2019-Jun-06 23:25N 50°43' W 001°59'0 0.0
2019-Jun-06 22:55N 50°43' W 001°59'0 0.0
2019-Jun-06 22:25N 50°43' W 001°59'0 0.0
2019-Jun-06 21:55N 50°43' W 001°59'0 0.0
2019-Jun-06 21:19N 50°43' W 001°59'0 0.0
2019-Jun-06 20:58N 50°43' W 001°59'0 0.0
2019-Jun-06 20:25N 50°43' W 001°59'0 0.0
2019-Jun-06 19:58N 50°43' W 001°59'0 0.0
2019-Jun-06 19:25N 50°43' W 001°59'0 0.0
2019-Jun-06 18:49N 50°43' W 001°59'0 0.0
2019-Jun-06 18:25N 50°43' W 001°59'0 0.0
2019-Jun-06 17:58N 50°43' W 001°59'0 0.0
2019-Jun-06 17:28N 50°43' W 001°59'0 0.0
2019-Jun-06 16:58N 50°43' W 001°59'0 0.0
2019-Jun-06 16:25N 50°43' W 001°59'0 0.0
2019-Jun-06 15:46N 50°43' W 001°59'0 0.0
2019-Jun-06 15:19N 50°43' W 001°59'0 0.0
2019-Jun-06 14:58N 50°43' W 001°59'0 0.0
2019-Jun-06 14:25N 50°43' W 001°59'0 0.0
2019-Jun-06 13:58N 50°43' W 001°59'0 0.0
2019-Jun-06 13:28N 50°43' W 001°59'0 0.0
2019-Jun-06 12:58N 50°43' W 001°59'0 0.0
2019-Jun-06 12:22N 50°43' W 001°59'0 0.0
2019-Jun-06 11:58N 50°43' W 001°59'0 0.0
2019-Jun-06 11:28N 50°43' W 001°59'0 0.0
2019-Jun-06 10:52N 50°43' W 001°59'0 0.0
2019-Jun-06 10:25N 50°43' W 001°59'0 0.0
2019-Jun-06 09:58N 50°43' W 001°59'0 0.0
2019-Jun-06 09:25N 50°43' W 001°59'0 0.0
2019-Jun-06 08:55N 50°43' W 001°59'0 0.0
2019-Jun-06 08:19N 50°43' W 001°59'0 0.0
2019-Jun-06 07:58N 50°43' W 001°59'0 0.0
2019-Jun-06 07:25N 50°43' W 001°59'0 0.0
2019-Jun-06 06:58N 50°43' W 001°59'0 0.0
2019-Jun-06 06:25N 50°43' W 001°59'0 0.0
2019-Jun-06 05:55N 50°43' W 001°59'0 0.0
2019-Jun-06 05:25N 50°43' W 001°59'0 0.0
2019-Jun-06 04:58N 50°43' W 001°59'0 0.0
2019-Jun-06 04:25N 50°43' W 001°59'0 0.0
2019-Jun-06 03:55N 50°43' W 001°59'0 0.0
2019-Jun-06 03:28N 50°43' W 001°59'0 0.0
2019-Jun-06 02:55N 50°43' W 001°59'0 0.0
2019-Jun-06 02:25N 50°43' W 001°59'0 0.0
2019-Jun-06 01:55N 50°43' W 001°59'0 0.0
2019-Jun-06 01:28N 50°43' W 001°59'0 0.0
2019-Jun-06 00:58N 50°43' W 001°59'0 0.0
2019-Jun-06 00:28N 50°43' W 001°59'0 0.0
2019-Jun-05 23:49N 50°43' W 001°59'0 0.0
2019-Jun-05 23:25N 50°43' W 001°59'0 0.0
2019-Jun-05 22:55N 50°43' W 001°59'0 0.0
2019-Jun-05 22:28N 50°43' W 001°59'0 0.0
2019-Jun-05 21:58N 50°43' W 001°59'0 0.0
2019-Jun-05 21:13N 50°43' W 001°59'0 0.0
2019-Jun-05 20:55N 50°43' W 001°59'0 0.0
2019-Jun-05 20:25N 50°43' W 001°59'0 0.0
2019-Jun-05 19:58N 50°43' W 001°59'0 0.0
2019-Jun-05 19:16N 50°43' W 001°59'0 0.0
2019-Jun-05 18:58N 50°43' W 001°59'0 0.0
2019-Jun-05 18:25N 50°43' W 001°59'0 0.0
2019-Jun-05 17:55N 50°43' W 001°59'0 0.0
2019-Jun-05 17:19N 50°43' W 001°59'0 0.0
2019-Jun-05 16:49N 50°43' W 001°59'0 0.0
2019-Jun-05 16:28N 50°43' W 001°59'0 0.0
2019-Jun-05 15:55N 50°43' W 001°59'0 0.0
2019-Jun-05 15:28N 50°43' W 001°59'  
Track history (hours):
 
Tides and Currents Weather Stations Pressure Air Temp Water Temp Dewpoint Dewpoint Depression Visibility Wind Speed Wind Dir Waves Ship Positions

Lord Nelson (United Kingdom)

Ship's website: http://www.jst.org.uk/

Last reported at 2019-Jun-15 15:12 UTC. Time now 2019-Jun-15 23:29 UTC.
Position N 56°25' W 005°29'.

Length 54.7 m; beam 9 m; draft 4.1 m.

Type: Sailing vessel. MMSI: 232003690.

Date/timePositionNaut miles runAvg speedWind from/ knotsBaromVisibWave heightAir tempDewpointWater temp
2019-Jun-15 15:12N 56°25' W 005°29'1 3.8
2019-Jun-15 14:57N 56°24' W 005°30'3 6.4
2019-Jun-15 14:30N 56°22' W 005°33'35 6.4
2019-Jun-15 09:00N 55°48' W 005°48'3 0.2 180 / 41007.2 2.2 11.510.510.5
2019-Jun-14 18:53N 55°49' W 005°53'2 5.5
2019-Jun-14 18:27N 55°46' W 005°53'3 6.0
2019-Jun-14 18:00N 55°44' W 005°52'2 5.0
2019-Jun-14 17:30N 55°41' W 005°52'3 5.4
2019-Jun-14 17:00N 55°39' W 005°51'3 5.8
2019-Jun-14 16:30N 55°36' W 005°51'3 5.3
2019-Jun-14 16:00N 55°33' W 005°51'3 5.4
2019-Jun-14 15:30N 55°30' W 005°51'3 5.6
2019-Jun-14 15:00N 55°28' W 005°52'3 6.8
2019-Jun-14 14:30N 55°24' W 005°53'3 6.7
2019-Jun-14 14:01N 55°21' W 005°52'4 8.5
2019-Jun-14 13:31N 55°17' W 005°50'4 8.9
2019-Jun-14 13:01N 55°13' W 005°47'2110.5
2019-Jun-14 11:00N 54°54' W 005°30'4 2.3 150 / 161004.610.8 12.0 7.9
2019-Jun-14 09:11N 54°51' W 005°25'1 7.2
2019-Jun-14 09:00N 54°50' W 005°24'4 6.9
2019-Jun-14 08:30N 54°47' W 005°21'3 6.5
2019-Jun-14 08:00N 54°44' W 005°18'3 6.1
2019-Jun-14 07:30N 54°41' W 005°16'3 5.7
2019-Jun-14 07:00N 54°39' W 005°14'3 6.2
2019-Jun-14 06:30N 54°35' W 005°14'3 6.2
2019-Jun-14 06:00N 54°32' W 005°13'3 6.1
2019-Jun-14 05:30N 54°29' W 005°14'3 6.0
2019-Jun-14 05:00N 54°26' W 005°14'3 5.9
2019-Jun-14 04:30N 54°23' W 005°14'3 6.1
2019-Jun-14 04:00N 54°20' W 005°14'3 6.3
2019-Jun-14 03:30N 54°17' W 005°15'3 6.7
2019-Jun-14 03:00N 54°14' W 005°15'1413.9
2019-Jun-14 02:00N 54°00' W 005°12'30 6.0 230 / 121004.110.8 10.0 5.411.4
2019-Jun-13 21:00N 53°30' W 005°18'28 7.2 270 / 161005.910.8 11.0 5.610.9
2019-Jun-13 17:05N 53°03' W 005°30'2 8.8
2019-Jun-13 16:51N 53°01' W 005°30'7 8.3
2019-Jun-13 15:59N 52°54' W 005°35'4 7.4
2019-Jun-13 15:28N 52°51' W 005°38'4 7.3
2019-Jun-13 14:56N 52°48' W 005°41'3 5.5
2019-Jun-13 14:20N 52°44' W 005°42'5 6.4
2019-Jun-13 13:29N 52°41' W 005°35'15 6.0
2019-Jun-13 11:00N 52°36' W 005°12'35 3.9 360 / 211005.810.8 11.0 9.011.2
2019-Jun-13 02:00N 52°06' W 005°42'13 3.1 350 / 241006.0 5.4 11.510.511.1
2019-Jun-12 22:00N 52°00' W 006°00'34 0.9 340 / 51010.110.8 11.910.211.3
2019-Jun-11 08:00N 52°06' W 006°54'21 3.5 350 / 221021.010.8 12.5 8.512.5
2019-Jun-11 02:00N 51°48' W 006°36'5513.8 340 / 221019.9 5.4 12.111.213.3
2019-Jun-10 22:00N 51°30' W 005°12'3538.4 360 / 241019.527.0 12.5 9.612.7
2019-Jun-10 21:05N 51°29' W 006°08'1 6.1
2019-Jun-10 20:59N 51°29' W 006°07'3 5.5
2019-Jun-10 20:30N 51°27' W 006°04'3 5.6
2019-Jun-10 20:00N 51°25' W 006°01'3 5.7
2019-Jun-10 19:30N 51°23' W 005°58'3 5.4
2019-Jun-10 19:00N 51°21' W 005°55'2 4.7
2019-Jun-10 18:28N 51°18' W 005°54'37 6.7
2019-Jun-10 13:00N 50°42' W 005°48'18 9.0 180 / 71017.710.8 16.611.714.2
2019-Jun-10 11:00N 50°24' W 005°48'49 5.4 020 / 51017.410.8 15.0 9.213.7
2019-Jun-10 02:00N 49°54' W 004°48'8 7.4 330 / 41019.010.8 13.0 9.713.4
2019-Jun-10 00:52N 49°59' W 004°38'4 6.9
2019-Jun-10 00:14N 50°00' W 004°31'2 6.8
2019-Jun-10 00:01N 50°01' W 004°29'3 6.7
2019-Jun-09 23:30N 50°01' W 004°24'3 6.7
2019-Jun-09 23:00N 50°02' W 004°19'3 6.6
2019-Jun-09 22:30N 50°04' W 004°14'3 6.3
2019-Jun-09 22:00N 50°04' W 004°09'3 6.5
2019-Jun-09 21:30N 50°05' W 004°04'3 6.6
2019-Jun-09 21:00N 50°06' W 003°59'4 7.1
2019-Jun-09 20:30N 50°07' W 003°54'4 7.4
2019-Jun-09 20:00N 50°08' W 003°49'4 8.0
2019-Jun-09 19:30N 50°09' W 003°43'4 8.2
2019-Jun-09 19:00N 50°10' W 003°36'4 8.1
2019-Jun-09 18:30N 50°11' W 003°30'4 8.1
2019-Jun-09 18:00N 50°12' W 003°24'4 8.0
2019-Jun-09 17:30N 50°14' W 003°19'4 7.9
2019-Jun-09 17:00N 50°16' W 003°13'4 7.7
2019-Jun-09 16:30N 50°17' W 003°08'4 7.4
2019-Jun-09 16:00N 50°19' W 003°02'4 7.2
2019-Jun-09 15:30N 50°20' W 002°57'3 7.0
2019-Jun-09 15:00N 50°21' W 002°52'3 6.4
2019-Jun-09 14:30N 50°22' W 002°47'3 6.0
2019-Jun-09 14:01N 50°23' W 002°42'5272.2
2019-Jun-09 14:00N 50°18' W 002°42'612.0 200 / 61020.810.8 16.7 9.913.8
2019-Jun-09 13:30N 50°23' W 002°38'3 5.6
2019-Jun-09 13:00N 50°24' W 002°34'3 5.1
2019-Jun-09 12:30N 50°24' W 002°30'2 4.9
2019-Jun-09 12:00N 50°25' W 002°26'5 5.3
2019-Jun-09 11:00N 50°24' W 002°18'12 6.2 230 / 51021.5 5.4 18.511.213.9
2019-Jun-09 08:59N 50°31' W 002°02'3 6.9
2019-Jun-09 08:31N 50°33' W 001°58'4 7.6
2019-Jun-09 08:00N 50°37' W 001°56'0 0.7
2019-Jun-09 07:29N 50°37' W 001°56'0 0.0
2019-Jun-09 06:59N 50°37' W 001°56'0 0.0
2019-Jun-09 06:29N 50°37' W 001°56'0 0.0
2019-Jun-09 05:59N 50°37' W 001°56'0 0.0
2019-Jun-09 05:29N 50°37' W 001°56'0 0.0
2019-Jun-09 04:59N 50°37' W 001°56'0 0.0
2019-Jun-09 03:59N 50°37' W 001°56'0 0.0
2019-Jun-09 03:29N 50°37' W 001°56'0 0.0
2019-Jun-09 02:59N 50°37' W 001°56'0 0.0
2019-Jun-09 02:29N 50°37' W 001°56'0 0.0
2019-Jun-09 01:59N 50°37' W 001°56'0 0.0
2019-Jun-09 01:29N 50°37' W 001°56'0 0.0
2019-Jun-09 00:59N 50°37' W 001°56'0 0.0
2019-Jun-09 00:26N 50°37' W 001°56'0 0.0
2019-Jun-08 23:59N 50°37' W 001°56'0 0.0
2019-Jun-08 23:29N 50°37' W 001°56'0 0.0
2019-Jun-08 22:59N 50°37' W 001°56'0 0.0
2019-Jun-08 22:29N 50°37' W 001°56'0 0.0
2019-Jun-08 21:59N 50°37' W 001°56'0 0.0
2019-Jun-08 21:29N 50°37' W 001°56'0 0.0
2019-Jun-08 20:59N 50°37' W 001°56'0 0.0
2019-Jun-08 20:29N 50°37' W 001°56'0 0.0
2019-Jun-08 19:59N 50°37' W 001°56'0 0.0
2019-Jun-08 19:29N 50°37' W 001°56'0 0.0
2019-Jun-08 18:59N 50°37' W 001°56'0 0.0
2019-Jun-08 18:31N 50°37' W 001°56'2 3.4
2019-Jun-08 18:00N 50°39' W 001°55'4 7.2
2019-Jun-08 17:31N 50°42' W 001°57'2 2.9
2019-Jun-08 16:59N 50°43' W 001°59'0 0.0
2019-Jun-08 16:29N 50°43' W 001°59'0 0.0
2019-Jun-08 15:56N 50°43' W 001°59'0 0.0
2019-Jun-08 15:17N 50°43' W 001°59'0 0.0
2019-Jun-08 14:56N 50°43' W 001°59'0 0.0
2019-Jun-08 14:20N 50°43' W 001°59'0 0.0
2019-Jun-08 13:59N 50°43' W 001°59'0 0.0
2019-Jun-08 13:26N 50°43' W 001°59'0 0.0
2019-Jun-08 12:56N 50°43' W 001°59'0 0.0
2019-Jun-08 12:26N 50°43' W 001°59'0 0.0
2019-Jun-08 11:56N 50°43' W 001°59'0 0.0
2019-Jun-08 11:17N 50°43' W 001°59'0 0.0
2019-Jun-08 10:59N 50°43' W 001°59'0 0.0
2019-Jun-08 10:29N 50°43' W 001°59'0 0.0
2019-Jun-08 09:59N 50°43' W 001°59'0 0.0
2019-Jun-08 09:29N 50°43' W 001°59'0 0.0
2019-Jun-08 08:59N 50°43' W 001°59'0 0.0
2019-Jun-08 08:11N 50°43' W 001°59'0 0.0
2019-Jun-08 07:59N 50°43' W 001°59'0 0.0
2019-Jun-08 07:26N 50°43' W 001°59'0 0.0
2019-Jun-08 06:56N 50°43' W 001°59'0 0.0
2019-Jun-08 06:29N 50°43' W 001°59'0 0.0
2019-Jun-08 05:59N 50°43' W 001°59'0 0.0
2019-Jun-08 05:29N 50°43' W 001°59'0 0.0
2019-Jun-08 04:59N 50°43' W 001°59'0 0.0
2019-Jun-08 04:29N 50°43' W 001°59'0 0.0
2019-Jun-08 03:56N 50°43' W 001°59'0 0.0
2019-Jun-08 03:26N 50°43' W 001°59'0 0.0
2019-Jun-08 02:59N 50°43' W 001°59'0 0.0
2019-Jun-08 02:29N 50°43' W 001°59'0 0.0
2019-Jun-08 01:55N 50°43' W 001°59'0 0.0
2019-Jun-08 01:25N 50°43' W 001°59'0 0.0
2019-Jun-08 00:58N 50°43' W 001°59'0 0.0
2019-Jun-08 00:28N 50°43' W 001°59'0 0.0
2019-Jun-07 23:55N 50°43' W 001°59'0 0.0
2019-Jun-07 23:28N 50°43' W 001°59'0 0.0
2019-Jun-07 22:58N 50°43' W 001°59'0 0.0
2019-Jun-07 22:25N 50°43' W 001°59'0 0.0
2019-Jun-07 21:58N 50°43' W 001°59'0 0.0
2019-Jun-07 21:28N 50°43' W 001°59'0 0.0
2019-Jun-07 20:52N 50°43' W 001°59'0 0.0
2019-Jun-07 20:28N 50°43' W 001°59'0 0.0
2019-Jun-07 19:55N 50°43' W 001°59'0 0.0
2019-Jun-07 19:25N 50°43' W 001°59'0 0.0
2019-Jun-07 18:58N 50°43' W 001°59'0 0.0
2019-Jun-07 18:25N 50°43' W 001°59'0 0.0
2019-Jun-07 17:52N 50°43' W 001°59'0 0.0
2019-Jun-07 17:25N 50°43' W 001°59'0 0.0
2019-Jun-07 16:58N 50°43' W 001°59'0 0.0
2019-Jun-07 16:25N 50°43' W 001°59'0 0.0
2019-Jun-07 15:55N 50°43' W 001°59'0 0.0
2019-Jun-07 15:19N 50°43' W 001°59'0 0.0
2019-Jun-07 14:58N 50°43' W 001°59'0 0.0
2019-Jun-07 14:25N 50°43' W 001°59'0 0.0
2019-Jun-07 13:55N 50°43' W 001°59'0 0.0
2019-Jun-07 13:25N 50°43' W 001°59'0 0.0
2019-Jun-07 12:55N 50°43' W 001°59'0 0.0
2019-Jun-07 12:19N 50°43' W 001°59'0 0.0
2019-Jun-07 11:49N 50°43' W 001°59'0 0.0
2019-Jun-07 11:19N 50°43' W 001°59'0 0.0
2019-Jun-07 10:58N 50°43' W 001°59'0 0.0
2019-Jun-07 10:25N 50°43' W 001°59'0 0.0
2019-Jun-07 09:55N 50°43' W 001°59'0 0.0
2019-Jun-07 09:25N 50°43' W 001°59'0 0.0
2019-Jun-07 08:55N 50°43' W 001°59'0 0.0
2019-Jun-07 08:19N 50°43' W 001°59'0 0.0
2019-Jun-07 07:55N 50°43' W 001°59'0 0.0
2019-Jun-07 07:25N 50°43' W 001°59'0 0.0
2019-Jun-07 06:49N 50°43' W 001°59'0 0.0
2019-Jun-07 06:22N 50°43' W 001°59'0 0.0
2019-Jun-07 05:55N 50°43' W 001°59'0 0.0
2019-Jun-07 05:22N 50°43' W 001°59'0 0.0
2019-Jun-07 04:49N 50°43' W 001°59'0 0.0
2019-Jun-07 04:25N 50°43' W 001°59'0 0.0
2019-Jun-07 03:55N 50°43' W 001°59'0 0.0
2019-Jun-07 03:25N 50°43' W 001°59'0 0.0
2019-Jun-07 02:58N 50°43' W 001°59'0 0.0
2019-Jun-07 02:25N 50°43' W 001°59'0 0.0
2019-Jun-07 01:49N 50°43' W 001°59'0 0.0
2019-Jun-07 01:28N 50°43' W 001°59'0 0.0
2019-Jun-07 00:49N 50°43' W 001°59'0 0.0
2019-Jun-07 00:16N 50°43' W 001°59'0 0.0
2019-Jun-06 23:55N 50°43' W 001°59'0 0.0
2019-Jun-06 23:25N 50°43' W 001°59'0 0.0
2019-Jun-06 22:55N 50°43' W 001°59'0 0.0
2019-Jun-06 22:25N 50°43' W 001°59'0 0.0
2019-Jun-06 21:55N 50°43' W 001°59'0 0.0
2019-Jun-06 21:19N 50°43' W 001°59'0 0.0
2019-Jun-06 20:58N 50°43' W 001°59'0 0.0
2019-Jun-06 20:25N 50°43' W 001°59'0 0.0
2019-Jun-06 19:58N 50°43' W 001°59'0 0.0
2019-Jun-06 19:25N 50°43' W 001°59'0 0.0
2019-Jun-06 18:49N 50°43' W 001°59'0 0.0
2019-Jun-06 18:25N 50°43' W 001°59'0 0.0
2019-Jun-06 17:58N 50°43' W 001°59'0 0.0
2019-Jun-06 17:28N 50°43' W 001°59'0 0.0
2019-Jun-06 16:58N 50°43' W 001°59'0 0.0
2019-Jun-06 16:25N 50°43' W 001°59'0 0.0
2019-Jun-06 15:46N 50°43' W 001°59'0 0.0
2019-Jun-06 15:19N 50°43' W 001°59'0 0.0
2019-Jun-06 14:58N 50°43' W 001°59'0 0.0
2019-Jun-06 14:25N 50°43' W 001°59'0 0.0
2019-Jun-06 13:58N 50°43' W 001°59'0 0.0
2019-Jun-06 13:28N 50°43' W 001°59'0 0.0
2019-Jun-06 12:58N 50°43' W 001°59'0 0.0
2019-Jun-06 12:22N 50°43' W 001°59'0 0.0
2019-Jun-06 11:58N 50°43' W 001°59'0 0.0
2019-Jun-06 11:28N 50°43' W 001°59'0 0.0
2019-Jun-06 10:52N 50°43' W 001°59'0 0.0
2019-Jun-06 10:25N 50°43' W 001°59'0 0.0
2019-Jun-06 09:58N 50°43' W 001°59'0 0.0
2019-Jun-06 09:25N 50°43' W 001°59'0 0.0
2019-Jun-06 08:55N 50°43' W 001°59'0 0.0
2019-Jun-06 08:19N 50°43' W 001°59'0 0.0
2019-Jun-06 07:58N 50°43' W 001°59'0 0.0
2019-Jun-06 07:25N 50°43' W 001°59'0 0.0
2019-Jun-06 06:58N 50°43' W 001°59'0 0.0
2019-Jun-06 06:25N 50°43' W 001°59'0 0.0
2019-Jun-06 05:55N 50°43' W 001°59'0 0.0
2019-Jun-06 05:25N 50°43' W 001°59'0 0.0
2019-Jun-06 04:58N 50°43' W 001°59'0 0.0
2019-Jun-06 04:25N 50°43' W 001°59'0 0.0
2019-Jun-06 03:55N 50°43' W 001°59'0 0.0
2019-Jun-06 03:28N 50°43' W 001°59'0 0.0
2019-Jun-06 02:55N 50°43' W 001°59'0 0.0
2019-Jun-06 02:25N 50°43' W 001°59'0 0.0
2019-Jun-06 01:55N 50°43' W 001°59'0 0.0
2019-Jun-06 01:28N 50°43' W 001°59'0 0.0
2019-Jun-06 00:58N 50°43' W 001°59'0 0.0
2019-Jun-06 00:28N 50°43' W 001°59'0 0.0
2019-Jun-05 23:49N 50°43' W 001°59'0 0.0
2019-Jun-05 23:25N 50°43' W 001°59'0 0.0
2019-Jun-05 22:55N 50°43' W 001°59'0 0.0
2019-Jun-05 22:28N 50°43' W 001°59'0 0.0
2019-Jun-05 21:58N 50°43' W 001°59'0 0.0
2019-Jun-05 21:13N 50°43' W 001°59'0 0.0
2019-Jun-05 20:55N 50°43' W 001°59'0 0.0
2019-Jun-05 20:25N 50°43' W 001°59'0 0.0
2019-Jun-05 19:58N 50°43' W 001°59'0 0.0
2019-Jun-05 19:16N 50°43' W 001°59'0 0.0
2019-Jun-05 18:58N 50°43' W 001°59'0 0.0
2019-Jun-05 18:25N 50°43' W 001°59'0 0.0
2019-Jun-05 17:55N 50°43' W 001°59'0 0.0
2019-Jun-05 17:19N 50°43' W 001°59'0 0.0
2019-Jun-05 16:49N 50°43' W 001°59'0 0.0
2019-Jun-05 16:28N 50°43' W 001°59'0 0.0
2019-Jun-05 15:55N 50°43' W 001°59'0 0.0
2019-Jun-05 15:28N 50°43' W 001°59'  

Dump ship's entire track history